sensor_id;sensor_type;location;lat;lon;timestamp;temperature;humidity
4934;DHT22;2482;49.154;8.254;2023-04-29T00:01:24;12.10;99.90
4934;DHT22;2482;49.154;8.254;2023-04-29T00:03:51;12.00;99.90
4934;DHT22;2482;49.154;8.254;2023-04-29T00:06:19;12.00;99.90
4934;DHT22;2482;49.154;8.254;2023-04-29T00:08:46;12.00;99.90
4934;DHT22;2482;49.154;8.254;2023-04-29T00:11:13;11.90;99.90
4934;DHT22;2482;49.154;8.254;2023-04-29T00:13:40;11.80;99.90
4934;DHT22;2482;49.154;8.254;2023-04-29T00:16:07;11.70;99.90
4934;DHT22;2482;49.154;8.254;2023-04-29T00:18:37;11.50;99.90
4934;DHT22;2482;49.154;8.254;2023-04-29T00:21:04;11.40;99.90
4934;DHT22;2482;49.154;8.254;2023-04-29T00:23:32;11.40;99.90
4934;DHT22;2482;49.154;8.254;2023-04-29T00:26:00;11.30;99.90
4934;DHT22;2482;49.154;8.254;2023-04-29T00:28:28;11.30;99.90
4934;DHT22;2482;49.154;8.254;2023-04-29T00:30:55;11.40;99.90
4934;DHT22;2482;49.154;8.254;2023-04-29T00:33:22;11.50;99.90
4934;DHT22;2482;49.154;8.254;2023-04-29T00:35:49;11.50;99.90
4934;DHT22;2482;49.154;8.254;2023-04-29T00:38:16;11.40;99.90
4934;DHT22;2482;49.154;8.254;2023-04-29T00:40:43;11.50;99.90
4934;DHT22;2482;49.154;8.254;2023-04-29T00:43:10;11.40;99.90
4934;DHT22;2482;49.154;8.254;2023-04-29T00:45:37;11.30;99.90
4934;DHT22;2482;49.154;8.254;2023-04-29T00:48:05;11.40;99.90
4934;DHT22;2482;49.154;8.254;2023-04-29T00:50:32;11.40;99.90
4934;DHT22;2482;49.154;8.254;2023-04-29T00:53:00;11.40;99.90
4934;DHT22;2482;49.154;8.254;2023-04-29T00:55:27;11.30;99.90
4934;DHT22;2482;49.154;8.254;2023-04-29T00:57:55;11.30;99.90
4934;DHT22;2482;49.154;8.254;2023-04-29T01:00:22;11.40;99.90
4934;DHT22;2482;49.154;8.254;2023-04-29T01:02:51;11.40;99.90
4934;DHT22;2482;49.154;8.254;2023-04-29T01:05:20;11.30;99.90
4934;DHT22;2482;49.154;8.254;2023-04-29T01:07:51;11.40;99.90
4934;DHT22;2482;49.154;8.254;2023-04-29T01:10:28;11.30;99.90
4934;DHT22;2482;49.154;8.254;2023-04-29T01:13:28;11.30;99.90
4934;DHT22;2482;49.154;8.254;2023-04-29T01:16:01;11.10;99.90
4934;DHT22;2482;49.154;8.254;2023-04-29T01:18:35;11.20;99.90
4934;DHT22;2482;49.154;8.254;2023-04-29T01:21:03;11.30;99.90
4934;DHT22;2482;49.154;8.254;2023-04-29T01:23:30;11.50;99.90
4934;DHT22;2482;49.154;8.254;2023-04-29T01:25:57;11.90;99.90
4934;DHT22;2482;49.154;8.254;2023-04-29T01:31:18;12.30;99.90
4934;DHT22;2482;49.154;8.254;2023-04-29T01:36:56;12.30;99.90
4934;DHT22;2482;49.154;8.254;2023-04-29T01:39:45;12.40;99.90
4934;DHT22;2482;49.154;8.254;2023-04-29T01:42:34;12.60;99.90
4934;DHT22;2482;49.154;8.254;2023-04-29T01:45:07;12.60;99.90
4934;DHT22;2482;49.154;8.254;2023-04-29T01:47:36;12.60;99.90
4934;DHT22;2482;49.154;8.254;2023-04-29T01:50:05;12.70;99.90
4934;DHT22;2482;49.154;8.254;2023-04-29T01:52:32;12.60;99.90
4934;DHT22;2482;49.154;8.254;2023-04-29T01:54:59;12.50;99.90
4934;DHT22;2482;49.154;8.254;2023-04-29T01:57:26;12.40;99.90
4934;DHT22;2482;49.154;8.254;2023-04-29T01:59:53;12.50;99.90
4934;DHT22;2482;49.154;8.254;2023-04-29T02:02:20;12.50;99.90
4934;DHT22;2482;49.154;8.254;2023-04-29T02:04:49;12.70;99.90
4934;DHT22;2482;49.154;8.254;2023-04-29T02:07:16;12.70;99.90
4934;DHT22;2482;49.154;8.254;2023-04-29T02:09:43;12.80;99.90
4934;DHT22;2482;49.154;8.254;2023-04-29T02:12:10;12.90;99.90
4934;DHT22;2482;49.154;8.254;2023-04-29T02:14:37;12.90;99.90
4934;DHT22;2482;49.154;8.254;2023-04-29T02:17:04;12.80;99.90
4934;DHT22;2482;49.154;8.254;2023-04-29T02:19:31;12.70;99.90
4934;DHT22;2482;49.154;8.254;2023-04-29T02:21:58;12.80;99.90
4934;DHT22;2482;49.154;8.254;2023-04-29T02:24:25;12.60;99.90
4934;DHT22;2482;49.154;8.254;2023-04-29T02:26:52;12.50;99.90
4934;DHT22;2482;49.154;8.254;2023-04-29T02:29:19;12.40;99.90
4934;DHT22;2482;49.154;8.254;2023-04-29T02:31:46;12.50;99.90
4934;DHT22;2482;49.154;8.254;2023-04-29T02:34:13;12.50;99.90
4934;DHT22;2482;49.154;8.254;2023-04-29T02:36:40;12.50;99.90
4934;DHT22;2482;49.154;8.254;2023-04-29T02:39:07;12.60;99.90
4934;DHT22;2482;49.154;8.254;2023-04-29T02:41:35;12.60;99.90
4934;DHT22;2482;49.154;8.254;2023-04-29T02:44:02;12.50;99.90
4934;DHT22;2482;49.154;8.254;2023-04-29T02:46:29;12.50;99.90
4934;DHT22;2482;49.154;8.254;2023-04-29T02:48:59;12.40;99.90
4934;DHT22;2482;49.154;8.254;2023-04-29T02:51:27;12.40;99.90
4934;DHT22;2482;49.154;8.254;2023-04-29T02:53:54;12.30;99.90
4934;DHT22;2482;49.154;8.254;2023-04-29T02:56:21;12.30;99.90
4934;DHT22;2482;49.154;8.254;2023-04-29T02:58:49;12.30;99.90
4934;DHT22;2482;49.154;8.254;2023-04-29T03:01:15;12.30;99.90
4934;DHT22;2482;49.154;8.254;2023-04-29T03:03:42;12.30;99.90
4934;DHT22;2482;49.154;8.254;2023-04-29T03:06:10;12.20;99.90
4934;DHT22;2482;49.154;8.254;2023-04-29T03:08:37;12.20;99.90
4934;DHT22;2482;49.154;8.254;2023-04-29T03:11:04;12.10;99.90
4934;DHT22;2482;49.154;8.254;2023-04-29T03:13:31;12.00;99.90
4934;DHT22;2482;49.154;8.254;2023-04-29T03:15:58;11.80;99.90
4934;DHT22;2482;49.154;8.254;2023-04-29T03:18:26;11.80;99.90
4934;DHT22;2482;49.154;8.254;2023-04-29T03:20:53;11.70;99.90
4934;DHT22;2482;49.154;8.254;2023-04-29T03:23:20;11.60;99.90
4934;DHT22;2482;49.154;8.254;2023-04-29T03:25:48;11.70;99.90
4934;DHT22;2482;49.154;8.254;2023-04-29T03:28:15;11.80;99.90
4934;DHT22;2482;49.154;8.254;2023-04-29T03:30:42;11.80;99.90
4934;DHT22;2482;49.154;8.254;2023-04-29T03:33:09;11.80;99.90
4934;DHT22;2482;49.154;8.254;2023-04-29T03:35:36;11.80;99.90
4934;DHT22;2482;49.154;8.254;2023-04-29T03:38:03;11.80;99.90
4934;DHT22;2482;49.154;8.254;2023-04-29T03:40:30;11.90;99.90
4934;DHT22;2482;49.154;8.254;2023-04-29T03:42:57;11.80;99.90
4934;DHT22;2482;49.154;8.254;2023-04-29T03:45:24;11.80;99.90
4934;DHT22;2482;49.154;8.254;2023-04-29T03:47:51;11.80;99.90
4934;DHT22;2482;49.154;8.254;2023-04-29T03:50:19;11.80;99.90
4934;DHT22;2482;49.154;8.254;2023-04-29T03:52:46;11.70;99.90
4934;DHT22;2482;49.154;8.254;2023-04-29T03:55:13;11.70;99.90
4934;DHT22;2482;49.154;8.254;2023-04-29T03:57:40;11.60;99.90
4934;DHT22;2482;49.154;8.254;2023-04-29T04:00:08;11.60;99.90
4934;DHT22;2482;49.154;8.254;2023-04-29T04:02:35;11.60;99.90
4934;DHT22;2482;49.154;8.254;2023-04-29T04:05:03;11.60;99.90
4934;DHT22;2482;49.154;8.254;2023-04-29T04:07:30;11.60;99.90
4934;DHT22;2482;49.154;8.254;2023-04-29T04:09:57;11.60;99.90
4934;DHT22;2482;49.154;8.254;2023-04-29T04:12:24;11.50;99.90
4934;DHT22;2482;49.154;8.254;2023-04-29T04:14:51;11.50;99.90
4934;DHT22;2482;49.154;8.254;2023-04-29T04:17:18;11.50;99.90
4934;DHT22;2482;49.154;8.254;2023-04-29T04:19:45;11.50;99.90
4934;DHT22;2482;49.154;8.254;2023-04-29T04:22:12;11.50;99.90
4934;DHT22;2482;49.154;8.254;2023-04-29T04:24:39;11.40;99.90
4934;DHT22;2482;49.154;8.254;2023-04-29T04:27:06;11.30;99.90
4934;DHT22;2482;49.154;8.254;2023-04-29T04:29:33;11.20;99.90
4934;DHT22;2482;49.154;8.254;2023-04-29T04:32:00;11.20;99.90
4934;DHT22;2482;49.154;8.254;2023-04-29T04:34:28;11.20;99.90
4934;DHT22;2482;49.154;8.254;2023-04-29T04:36:55;11.20;99.90
4934;DHT22;2482;49.154;8.254;2023-04-29T04:39:22;11.10;99.90
4934;DHT22;2482;49.154;8.254;2023-04-29T04:41:49;11.20;99.90
4934;DHT22;2482;49.154;8.254;2023-04-29T04:44:16;11.30;99.90
4934;DHT22;2482;49.154;8.254;2023-04-29T04:46:43;11.50;99.90
4934;DHT22;2482;49.154;8.254;2023-04-29T04:49:10;11.50;99.90
4934;DHT22;2482;49.154;8.254;2023-04-29T04:51:37;11.60;99.90
4934;DHT22;2482;49.154;8.254;2023-04-29T04:54:04;11.70;99.90
4934;DHT22;2482;49.154;8.254;2023-04-29T04:56:31;11.90;99.90
4934;DHT22;2482;49.154;8.254;2023-04-29T04:58:58;12.10;99.90
4934;DHT22;2482;49.154;8.254;2023-04-29T05:01:25;12.20;99.90
4934;DHT22;2482;49.154;8.254;2023-04-29T05:03:52;12.40;99.90
4934;DHT22;2482;49.154;8.254;2023-04-29T05:06:19;12.60;99.90
4934;DHT22;2482;49.154;8.254;2023-04-29T05:08:46;12.60;99.90
4934;DHT22;2482;49.154;8.254;2023-04-29T05:11:20;12.70;99.90
4934;DHT22;2482;49.154;8.254;2023-04-29T05:13:48;12.80;99.90
4934;DHT22;2482;49.154;8.254;2023-04-29T05:16:15;12.80;99.90
4934;DHT22;2482;49.154;8.254;2023-04-29T05:18:44;12.80;99.90
4934;DHT22;2482;49.154;8.254;2023-04-29T05:21:12;12.80;99.90
4934;DHT22;2482;49.154;8.254;2023-04-29T05:23:41;12.80;99.90
4934;DHT22;2482;49.154;8.254;2023-04-29T05:26:08;12.90;99.90
4934;DHT22;2482;49.154;8.254;2023-04-29T05:28:36;12.80;99.90
4934;DHT22;2482;49.154;8.254;2023-04-29T05:31:03;12.80;99.90
4934;DHT22;2482;49.154;8.254;2023-04-29T05:33:30;12.80;99.90
4934;DHT22;2482;49.154;8.254;2023-04-29T05:35:56;12.90;99.90
4934;DHT22;2482;49.154;8.254;2023-04-29T05:38:23;12.90;99.90
4934;DHT22;2482;49.154;8.254;2023-04-29T05:40:55;12.80;99.90
4934;DHT22;2482;49.154;8.254;2023-04-29T05:43:22;12.70;99.90
4934;DHT22;2482;49.154;8.254;2023-04-29T05:45:49;12.70;99.90
4934;DHT22;2482;49.154;8.254;2023-04-29T05:48:17;12.80;99.90
4934;DHT22;2482;49.154;8.254;2023-04-29T05:50:45;12.90;99.90
4934;DHT22;2482;49.154;8.254;2023-04-29T05:53:13;13.00;99.90
4934;DHT22;2482;49.154;8.254;2023-04-29T05:55:40;13.00;99.90
4934;DHT22;2482;49.154;8.254;2023-04-29T05:58:11;13.30;99.90
4934;DHT22;2482;49.154;8.254;2023-04-29T06:00:38;13.40;99.90
4934;DHT22;2482;49.154;8.254;2023-04-29T06:03:06;13.60;99.90
4934;DHT22;2482;49.154;8.254;2023-04-29T06:05:33;13.80;99.90
4934;DHT22;2482;49.154;8.254;2023-04-29T06:08:01;13.50;99.90
4934;DHT22;2482;49.154;8.254;2023-04-29T06:10:29;13.50;99.90
4934;DHT22;2482;49.154;8.254;2023-04-29T06:12:56;13.40;99.90
4934;DHT22;2482;49.154;8.254;2023-04-29T06:15:23;13.40;99.90
4934;DHT22;2482;49.154;8.254;2023-04-29T06:17:50;13.40;99.90
4934;DHT22;2482;49.154;8.254;2023-04-29T06:20:17;13.40;99.90
4934;DHT22;2482;49.154;8.254;2023-04-29T06:22:45;13.40;99.90
4934;DHT22;2482;49.154;8.254;2023-04-29T06:25:13;13.50;99.90
4934;DHT22;2482;49.154;8.254;2023-04-29T06:27:40;13.70;99.90
4934;DHT22;2482;49.154;8.254;2023-04-29T06:30:07;13.80;99.90
4934;DHT22;2482;49.154;8.254;2023-04-29T06:32:37;13.90;99.90
4934;DHT22;2482;49.154;8.254;2023-04-29T06:35:05;14.20;99.90
4934;DHT22;2482;49.154;8.254;2023-04-29T06:37:32;14.40;99.90
4934;DHT22;2482;49.154;8.254;2023-04-29T06:40:02;14.70;99.90
4934;DHT22;2482;49.154;8.254;2023-04-29T06:42:30;14.90;99.90
4934;DHT22;2482;49.154;8.254;2023-04-29T06:44:57;15.00;99.90
4934;DHT22;2482;49.154;8.254;2023-04-29T06:47:24;15.20;99.90
4934;DHT22;2482;49.154;8.254;2023-04-29T06:49:51;15.00;99.90
4934;DHT22;2482;49.154;8.254;2023-04-29T06:52:19;15.00;99.90
4934;DHT22;2482;49.154;8.254;2023-04-29T06:54:46;14.90;99.90
4934;DHT22;2482;49.154;8.254;2023-04-29T06:57:13;15.10;99.90
4934;DHT22;2482;49.154;8.254;2023-04-29T06:59:40;15.30;99.90
4934;DHT22;2482;49.154;8.254;2023-04-29T07:02:07;15.50;99.90
4934;DHT22;2482;49.154;8.254;2023-04-29T07:04:33;15.40;99.90
4934;DHT22;2482;49.154;8.254;2023-04-29T07:07:03;15.70;99.90
4934;DHT22;2482;49.154;8.254;2023-04-29T07:09:30;15.90;99.90
4934;DHT22;2482;49.154;8.254;2023-04-29T07:11:57;16.10;99.90
4934;DHT22;2482;49.154;8.254;2023-04-29T07:14:24;16.20;99.90
4934;DHT22;2482;49.154;8.254;2023-04-29T07:16:54;16.50;99.90
4934;DHT22;2482;49.154;8.254;2023-04-29T07:19:21;16.70;99.90
4934;DHT22;2482;49.154;8.254;2023-04-29T07:21:48;16.60;99.90
4934;DHT22;2482;49.154;8.254;2023-04-29T07:24:16;16.20;99.90
4934;DHT22;2482;49.154;8.254;2023-04-29T07:26:43;16.40;99.90
4934;DHT22;2482;49.154;8.254;2023-04-29T07:29:11;16.50;99.90
4934;DHT22;2482;49.154;8.254;2023-04-29T07:31:38;16.60;99.90
4934;DHT22;2482;49.154;8.254;2023-04-29T07:34:04;16.80;99.90
4934;DHT22;2482;49.154;8.254;2023-04-29T07:36:31;16.70;99.90
4934;DHT22;2482;49.154;8.254;2023-04-29T07:38:58;16.40;99.90
4934;DHT22;2482;49.154;8.254;2023-04-29T07:41:26;16.60;99.90
4934;DHT22;2482;49.154;8.254;2023-04-29T07:43:54;16.50;99.90
4934;DHT22;2482;49.154;8.254;2023-04-29T07:46:21;16.40;99.90
4934;DHT22;2482;49.154;8.254;2023-04-29T07:48:48;16.00;99.90
4934;DHT22;2482;49.154;8.254;2023-04-29T07:51:15;16.00;99.90
4934;DHT22;2482;49.154;8.254;2023-04-29T07:53:41;16.20;99.90
4934;DHT22;2482;49.154;8.254;2023-04-29T07:56:09;16.20;99.90
4934;DHT22;2482;49.154;8.254;2023-04-29T07:58:36;16.10;99.90
4934;DHT22;2482;49.154;8.254;2023-04-29T08:01:09;16.30;99.90
4934;DHT22;2482;49.154;8.254;2023-04-29T08:03:38;16.20;99.90
4934;DHT22;2482;49.154;8.254;2023-04-29T08:06:07;16.40;99.90
4934;DHT22;2482;49.154;8.254;2023-04-29T08:08:34;16.30;99.90
4934;DHT22;2482;49.154;8.254;2023-04-29T08:11:01;16.00;99.90
4934;DHT22;2482;49.154;8.254;2023-04-29T08:13:29;16.00;99.90
4934;DHT22;2482;49.154;8.254;2023-04-29T08:15:56;16.30;99.90
4934;DHT22;2482;49.154;8.254;2023-04-29T08:18:23;16.40;99.90
4934;DHT22;2482;49.154;8.254;2023-04-29T08:20:50;16.40;99.90
4934;DHT22;2482;49.154;8.254;2023-04-29T08:23:17;16.80;99.90
4934;DHT22;2482;49.154;8.254;2023-04-29T08:25:44;16.80;99.90
4934;DHT22;2482;49.154;8.254;2023-04-29T08:28:11;16.80;99.90
4934;DHT22;2482;49.154;8.254;2023-04-29T08:30:41;16.40;99.90
4934;DHT22;2482;49.154;8.254;2023-04-29T08:33:08;16.20;99.90
4934;DHT22;2482;49.154;8.254;2023-04-29T08:35:35;16.00;99.90
4934;DHT22;2482;49.154;8.254;2023-04-29T08:38:04;15.90;99.90
4934;DHT22;2482;49.154;8.254;2023-04-29T08:40:50;15.80;99.90
4934;DHT22;2482;49.154;8.254;2023-04-29T08:43:18;15.50;99.90
4934;DHT22;2482;49.154;8.254;2023-04-29T08:45:47;15.30;99.90
4934;DHT22;2482;49.154;8.254;2023-04-29T08:48:16;15.20;99.90
4934;DHT22;2482;49.154;8.254;2023-04-29T08:50:43;15.30;99.90
4934;DHT22;2482;49.154;8.254;2023-04-29T08:53:12;15.20;99.90
4934;DHT22;2482;49.154;8.254;2023-04-29T08:55:49;15.20;99.90
4934;DHT22;2482;49.154;8.254;2023-04-29T08:58:16;15.20;99.90
4934;DHT22;2482;49.154;8.254;2023-04-29T09:00:43;15.30;99.90
4934;DHT22;2482;49.154;8.254;2023-04-29T09:03:21;15.30;99.90
4934;DHT22;2482;49.154;8.254;2023-04-29T09:05:55;15.30;99.90
4934;DHT22;2482;49.154;8.254;2023-04-29T09:08:25;15.40;99.90
4934;DHT22;2482;49.154;8.254;2023-04-29T09:10:53;15.40;99.90
4934;DHT22;2482;49.154;8.254;2023-04-29T09:13:29;15.60;99.90
4934;DHT22;2482;49.154;8.254;2023-04-29T09:15:57;15.70;99.90
4934;DHT22;2482;49.154;8.254;2023-04-29T09:18:47;15.70;99.90
4934;DHT22;2482;49.154;8.254;2023-04-29T09:21:24;15.70;99.90
4934;DHT22;2482;49.154;8.254;2023-04-29T09:23:57;15.00;99.90
4934;DHT22;2482;49.154;8.254;2023-04-29T09:26:26;14.40;99.90
4934;DHT22;2482;49.154;8.254;2023-04-29T09:29:10;14.30;99.90
4934;DHT22;2482;49.154;8.254;2023-04-29T09:31:40;14.20;99.90
4934;DHT22;2482;49.154;8.254;2023-04-29T09:34:08;14.10;99.90
4934;DHT22;2482;49.154;8.254;2023-04-29T09:36:36;14.00;99.90
4934;DHT22;2482;49.154;8.254;2023-04-29T09:39:07;13.80;99.90
4934;DHT22;2482;49.154;8.254;2023-04-29T09:41:56;13.80;99.90
4934;DHT22;2482;49.154;8.254;2023-04-29T09:44:27;13.90;99.90
4934;DHT22;2482;49.154;8.254;2023-04-29T09:47:02;13.90;99.90
4934;DHT22;2482;49.154;8.254;2023-04-29T09:52:05;13.80;99.90
4934;DHT22;2482;49.154;8.254;2023-04-29T09:54:40;13.80;99.90
4934;DHT22;2482;49.154;8.254;2023-04-29T09:57:09;13.90;99.90
4934;DHT22;2482;49.154;8.254;2023-04-29T09:59:38;14.10;99.90
4934;DHT22;2482;49.154;8.254;2023-04-29T10:02:13;14.20;99.90
4934;DHT22;2482;49.154;8.254;2023-04-29T10:04:44;14.30;99.90
4934;DHT22;2482;49.154;8.254;2023-04-29T10:07:16;14.30;99.90
4934;DHT22;2482;49.154;8.254;2023-04-29T10:09:45;14.20;99.90
4934;DHT22;2482;49.154;8.254;2023-04-29T10:12:17;14.20;99.90
4934;DHT22;2482;49.154;8.254;2023-04-29T10:15:17;14.20;99.90
4934;DHT22;2482;49.154;8.254;2023-04-29T10:20:24;14.00;99.90
4934;DHT22;2482;49.154;8.254;2023-04-29T10:22:53;14.00;99.90
4934;DHT22;2482;49.154;8.254;2023-04-29T10:25:23;14.00;99.90
4934;DHT22;2482;49.154;8.254;2023-04-29T10:27:50;14.00;99.90
4934;DHT22;2482;49.154;8.254;2023-04-29T10:30:20;14.00;99.90
4934;DHT22;2482;49.154;8.254;2023-04-29T10:32:49;13.90;99.90
4934;DHT22;2482;49.154;8.254;2023-04-29T10:35:19;14.10;99.90
4934;DHT22;2482;49.154;8.254;2023-04-29T10:37:52;14.20;99.90
4934;DHT22;2482;49.154;8.254;2023-04-29T10:42:53;14.30;99.90
4934;DHT22;2482;49.154;8.254;2023-04-29T10:45:22;14.30;99.90
4934;DHT22;2482;49.154;8.254;2023-04-29T10:50:29;14.20;99.90
4934;DHT22;2482;49.154;8.254;2023-04-29T10:53:18;14.20;99.90
4934;DHT22;2482;49.154;8.254;2023-04-29T10:56:03;14.30;99.90
4934;DHT22;2482;49.154;8.254;2023-04-29T10:58:44;14.20;99.90
4934;DHT22;2482;49.154;8.254;2023-04-29T11:01:16;14.20;99.90
4934;DHT22;2482;49.154;8.254;2023-04-29T11:03:54;14.20;99.90
4934;DHT22;2482;49.154;8.254;2023-04-29T11:09:24;14.20;99.90
4934;DHT22;2482;49.154;8.254;2023-04-29T11:14:25;14.40;99.90
4934;DHT22;2482;49.154;8.254;2023-04-29T11:17:00;14.50;99.90
4934;DHT22;2482;49.154;8.254;2023-04-29T11:19:33;14.50;99.90
4934;DHT22;2482;49.154;8.254;2023-04-29T11:22:24;14.80;99.90
4934;DHT22;2482;49.154;8.254;2023-04-29T11:24:56;14.80;99.90
4934;DHT22;2482;49.154;8.254;2023-04-29T11:27:35;14.90;99.90
4934;DHT22;2482;49.154;8.254;2023-04-29T11:30:05;15.00;99.90
4934;DHT22;2482;49.154;8.254;2023-04-29T11:32:35;14.90;99.90
4934;DHT22;2482;49.154;8.254;2023-04-29T11:35:14;14.90;99.90
4934;DHT22;2482;49.154;8.254;2023-04-29T11:37:43;14.90;99.90
4934;DHT22;2482;49.154;8.254;2023-04-29T11:40:12;15.10;99.90
4934;DHT22;2482;49.154;8.254;2023-04-29T11:42:42;15.10;99.90
4934;DHT22;2482;49.154;8.254;2023-04-29T11:45:11;15.00;99.90
4934;DHT22;2482;49.154;8.254;2023-04-29T11:47:42;15.10;99.90
4934;DHT22;2482;49.154;8.254;2023-04-29T11:50:14;15.10;99.90
4934;DHT22;2482;49.154;8.254;2023-04-29T11:52:45;15.00;99.90
4934;DHT22;2482;49.154;8.254;2023-04-29T11:55:13;15.00;99.90
4934;DHT22;2482;49.154;8.254;2023-04-29T11:57:40;15.00;99.90
4934;DHT22;2482;49.154;8.254;2023-04-29T12:00:09;14.80;99.90
4934;DHT22;2482;49.154;8.254;2023-04-29T12:02:43;14.80;99.90
4934;DHT22;2482;49.154;8.254;2023-04-29T12:05:12;14.70;99.90
4934;DHT22;2482;49.154;8.254;2023-04-29T12:07:42;14.80;99.90
4934;DHT22;2482;49.154;8.254;2023-04-29T12:10:10;15.10;99.90
4934;DHT22;2482;49.154;8.254;2023-04-29T12:12:38;15.10;99.90
4934;DHT22;2482;49.154;8.254;2023-04-29T12:15:08;15.20;99.90
4934;DHT22;2482;49.154;8.254;2023-04-29T12:17:36;15.40;99.90
4934;DHT22;2482;49.154;8.254;2023-04-29T12:20:05;15.40;99.90
4934;DHT22;2482;49.154;8.254;2023-04-29T12:22:34;15.30;99.90
4934;DHT22;2482;49.154;8.254;2023-04-29T12:25:05;15.30;99.90
4934;DHT22;2482;49.154;8.254;2023-04-29T12:27:34;15.20;99.90
4934;DHT22;2482;49.154;8.254;2023-04-29T12:30:06;15.40;99.90
4934;DHT22;2482;49.154;8.254;2023-04-29T12:32:35;15.60;99.90
4934;DHT22;2482;49.154;8.254;2023-04-29T12:35:03;15.50;99.90
4934;DHT22;2482;49.154;8.254;2023-04-29T12:37:30;15.50;99.90
4934;DHT22;2482;49.154;8.254;2023-04-29T12:39:57;15.60;99.90
4934;DHT22;2482;49.154;8.254;2023-04-29T12:42:31;15.60;99.90
4934;DHT22;2482;49.154;8.254;2023-04-29T12:44:59;15.50;99.90
4934;DHT22;2482;49.154;8.254;2023-04-29T12:47:31;15.20;99.90
4934;DHT22;2482;49.154;8.254;2023-04-29T12:50:03;15.00;99.90
4934;DHT22;2482;49.154;8.254;2023-04-29T12:52:32;15.00;99.90
4934;DHT22;2482;49.154;8.254;2023-04-29T12:55:02;14.90;99.90
4934;DHT22;2482;49.154;8.254;2023-04-29T12:57:30;14.90;99.90
4934;DHT22;2482;49.154;8.254;2023-04-29T12:59:57;14.70;99.90
4934;DHT22;2482;49.154;8.254;2023-04-29T13:02:24;14.60;99.90
4934;DHT22;2482;49.154;8.254;2023-04-29T13:04:51;14.60;99.90
4934;DHT22;2482;49.154;8.254;2023-04-29T13:07:19;14.60;99.90
4934;DHT22;2482;49.154;8.254;2023-04-29T13:09:46;14.50;99.90
4934;DHT22;2482;49.154;8.254;2023-04-29T13:12:13;14.60;99.90
4934;DHT22;2482;49.154;8.254;2023-04-29T13:14:40;14.60;99.90
4934;DHT22;2482;49.154;8.254;2023-04-29T13:17:07;14.60;99.90
4934;DHT22;2482;49.154;8.254;2023-04-29T13:19:36;14.50;99.90
4934;DHT22;2482;49.154;8.254;2023-04-29T13:22:17;14.50;99.90
4934;DHT22;2482;49.154;8.254;2023-04-29T13:24:44;14.30;99.90
4934;DHT22;2482;49.154;8.254;2023-04-29T13:27:12;14.20;99.90
4934;DHT22;2482;49.154;8.254;2023-04-29T13:29:39;14.10;99.90
4934;DHT22;2482;49.154;8.254;2023-04-29T13:32:06;14.10;99.90
4934;DHT22;2482;49.154;8.254;2023-04-29T13:34:34;14.00;99.90
4934;DHT22;2482;49.154;8.254;2023-04-29T13:37:01;14.00;99.90
4934;DHT22;2482;49.154;8.254;2023-04-29T13:39:28;14.00;99.90
4934;DHT22;2482;49.154;8.254;2023-04-29T13:41:55;13.90;99.90
4934;DHT22;2482;49.154;8.254;2023-04-29T13:44:25;13.90;99.90
4934;DHT22;2482;49.154;8.254;2023-04-29T13:47:05;13.90;99.90
4934;DHT22;2482;49.154;8.254;2023-04-29T13:49:32;14.00;99.90
4934;DHT22;2482;49.154;8.254;2023-04-29T13:52:02;14.10;99.90
4934;DHT22;2482;49.154;8.254;2023-04-29T13:54:49;14.00;99.90
4934;DHT22;2482;49.154;8.254;2023-04-29T13:57:36;14.00;99.90
4934;DHT22;2482;49.154;8.254;2023-04-29T14:00:06;14.00;99.90
4934;DHT22;2482;49.154;8.254;2023-04-29T14:02:54;13.90;99.90
4934;DHT22;2482;49.154;8.254;2023-04-29T14:05:24;13.90;99.90
4934;DHT22;2482;49.154;8.254;2023-04-29T14:07:52;13.90;99.90
4934;DHT22;2482;49.154;8.254;2023-04-29T14:10:19;14.00;99.90
4934;DHT22;2482;49.154;8.254;2023-04-29T14:12:46;13.90;99.90
4934;DHT22;2482;49.154;8.254;2023-04-29T14:15:14;14.00;99.90
4934;DHT22;2482;49.154;8.254;2023-04-29T14:17:41;14.00;99.90
4934;DHT22;2482;49.154;8.254;2023-04-29T14:20:09;14.00;99.90
4934;DHT22;2482;49.154;8.254;2023-04-29T14:22:36;14.00;99.90
4934;DHT22;2482;49.154;8.254;2023-04-29T14:25:03;13.90;99.90
4934;DHT22;2482;49.154;8.254;2023-04-29T14:27:30;13.90;99.90
4934;DHT22;2482;49.154;8.254;2023-04-29T14:29:57;14.00;99.90
4934;DHT22;2482;49.154;8.254;2023-04-29T14:32:24;14.00;99.90
4934;DHT22;2482;49.154;8.254;2023-04-29T14:34:51;14.00;99.90
4934;DHT22;2482;49.154;8.254;2023-04-29T14:37:19;14.00;99.90
4934;DHT22;2482;49.154;8.254;2023-04-29T14:39:46;14.10;99.90
4934;DHT22;2482;49.154;8.254;2023-04-29T14:42:13;14.10;99.90
4934;DHT22;2482;49.154;8.254;2023-04-29T14:44:40;14.20;99.90
4934;DHT22;2482;49.154;8.254;2023-04-29T14:47:07;14.30;99.90
4934;DHT22;2482;49.154;8.254;2023-04-29T14:49:35;14.20;99.90
4934;DHT22;2482;49.154;8.254;2023-04-29T14:52:01;14.10;99.90
4934;DHT22;2482;49.154;8.254;2023-04-29T14:54:29;14.10;99.90
4934;DHT22;2482;49.154;8.254;2023-04-29T14:56:56;14.10;99.90
4934;DHT22;2482;49.154;8.254;2023-04-29T14:59:23;14.10;99.90
4934;DHT22;2482;49.154;8.254;2023-04-29T15:01:50;14.10;99.90
4934;DHT22;2482;49.154;8.254;2023-04-29T15:04:17;14.10;99.90
4934;DHT22;2482;49.154;8.254;2023-04-29T15:06:44;14.10;99.90
4934;DHT22;2482;49.154;8.254;2023-04-29T15:09:11;14.10;99.90
4934;DHT22;2482;49.154;8.254;2023-04-29T15:11:39;14.10;99.90
4934;DHT22;2482;49.154;8.254;2023-04-29T15:14:06;14.20;99.90
4934;DHT22;2482;49.154;8.254;2023-04-29T15:16:34;14.10;99.90
4934;DHT22;2482;49.154;8.254;2023-04-29T15:19:01;14.10;99.90
4934;DHT22;2482;49.154;8.254;2023-04-29T15:21:28;14.20;99.90
4934;DHT22;2482;49.154;8.254;2023-04-29T15:23:55;14.20;99.90
4934;DHT22;2482;49.154;8.254;2023-04-29T15:26:22;14.20;99.90
4934;DHT22;2482;49.154;8.254;2023-04-29T15:28:49;14.20;99.90
4934;DHT22;2482;49.154;8.254;2023-04-29T15:31:16;14.30;99.90
4934;DHT22;2482;49.154;8.254;2023-04-29T15:33:44;14.30;99.90
4934;DHT22;2482;49.154;8.254;2023-04-29T15:36:11;14.30;99.90
4934;DHT22;2482;49.154;8.254;2023-04-29T15:38:38;14.30;99.90
4934;DHT22;2482;49.154;8.254;2023-04-29T15:41:05;14.20;99.90
4934;DHT22;2482;49.154;8.254;2023-04-29T15:43:32;14.20;99.90
4934;DHT22;2482;49.154;8.254;2023-04-29T15:45:59;14.20;99.90
4934;DHT22;2482;49.154;8.254;2023-04-29T15:48:26;14.20;99.90
4934;DHT22;2482;49.154;8.254;2023-04-29T15:50:53;14.20;99.90
4934;DHT22;2482;49.154;8.254;2023-04-29T15:53:20;14.20;99.90
4934;DHT22;2482;49.154;8.254;2023-04-29T15:55:49;14.10;99.90
4934;DHT22;2482;49.154;8.254;2023-04-29T15:58:17;14.10;99.90
4934;DHT22;2482;49.154;8.254;2023-04-29T16:00:44;14.20;99.90
4934;DHT22;2482;49.154;8.254;2023-04-29T16:03:12;14.30;99.90
4934;DHT22;2482;49.154;8.254;2023-04-29T16:05:39;14.40;99.90
4934;DHT22;2482;49.154;8.254;2023-04-29T16:08:06;14.50;99.90
4934;DHT22;2482;49.154;8.254;2023-04-29T16:10:33;14.50;99.90
4934;DHT22;2482;49.154;8.254;2023-04-29T16:13:00;14.80;99.90
4934;DHT22;2482;49.154;8.254;2023-04-29T16:15:28;15.10;99.90
4934;DHT22;2482;49.154;8.254;2023-04-29T16:17:55;15.10;99.90
4934;DHT22;2482;49.154;8.254;2023-04-29T16:20:22;15.00;99.90
4934;DHT22;2482;49.154;8.254;2023-04-29T16:22:49;15.00;99.90
4934;DHT22;2482;49.154;8.254;2023-04-29T16:25:16;15.00;99.90
4934;DHT22;2482;49.154;8.254;2023-04-29T16:27:43;15.00;99.90
4934;DHT22;2482;49.154;8.254;2023-04-29T16:30:10;14.90;99.90
4934;DHT22;2482;49.154;8.254;2023-04-29T16:32:37;14.70;99.90
4934;DHT22;2482;49.154;8.254;2023-04-29T16:35:10;14.60;99.90